sensor_id;sensor_type;location;lat;lon;timestamp;P1;durP1;ratioP1;P2;durP2;ratioP2
25127;SDS011;13107;51.304;6.866;2023-05-18T00:02:08;9.93;;;2.70;;
25127;SDS011;13107;51.304;6.866;2023-05-18T00:06:10;10.13;;;2.97;;
25127;SDS011;13107;51.304;6.866;2023-05-18T00:10:12;6.43;;;2.40;;
25127;SDS011;13107;51.304;6.866;2023-05-18T00:14:14;15.68;;;2.65;;
25127;SDS011;13107;51.304;6.866;2023-05-18T00:18:15;7.53;;;2.65;;
25127;SDS011;13107;51.304;6.866;2023-05-18T00:22:17;11.18;;;3.00;;
25127;SDS011;13107;51.304;6.866;2023-05-18T00:26:19;9.43;;;2.90;;
25127;SDS011;13107;51.304;6.866;2023-05-18T00:30:21;13.52;;;2.55;;
25127;SDS011;13107;51.304;6.866;2023-05-18T00:34:25;10.73;;;3.12;;
25127;SDS011;13107;51.304;6.866;2023-05-18T00:38:27;7.90;;;2.60;;
25127;SDS011;13107;51.304;6.866;2023-05-18T00:42:29;10.43;;;2.80;;
25127;SDS011;13107;51.304;6.866;2023-05-18T00:46:30;6.80;;;2.97;;
25127;SDS011;13107;51.304;6.866;2023-05-18T00:50:33;10.00;;;3.45;;
25127;SDS011;13107;51.304;6.866;2023-05-18T00:54:35;6.32;;;3.00;;
25127;SDS011;13107;51.304;6.866;2023-05-18T00:58:37;10.85;;;4.07;;
25127;SDS011;13107;51.304;6.866;2023-05-18T01:02:40;12.00;;;3.90;;
25127;SDS011;13107;51.304;6.866;2023-05-18T01:06:46;11.60;;;3.87;;
25127;SDS011;13107;51.304;6.866;2023-05-18T01:10:50;11.27;;;3.75;;
25127;SDS011;13107;51.304;6.866;2023-05-18T01:15:02;10.02;;;3.90;;
25127;SDS011;13107;51.304;6.866;2023-05-18T01:19:19;10.65;;;4.55;;
25127;SDS011;13107;51.304;6.866;2023-05-18T01:23:44;16.37;;;5.07;;
25127;SDS011;13107;51.304;6.866;2023-05-18T01:28:12;14.45;;;5.95;;
25127;SDS011;13107;51.304;6.866;2023-05-18T01:32:17;15.88;;;6.97;;
25127;SDS011;13107;51.304;6.866;2023-05-18T01:36:22;16.83;;;6.25;;
25127;SDS011;13107;51.304;6.866;2023-05-18T01:40:24;9.93;;;4.93;;
25127;SDS011;13107;51.304;6.866;2023-05-18T01:44:42;12.68;;;4.20;;
25127;SDS011;13107;51.304;6.866;2023-05-18T01:48:53;14.82;;;4.10;;
25127;SDS011;13107;51.304;6.866;2023-05-18T01:52:57;12.52;;;4.00;;
25127;SDS011;13107;51.304;6.866;2023-05-18T01:57:05;11.23;;;3.47;;
25127;SDS011;13107;51.304;6.866;2023-05-18T02:01:08;11.43;;;3.62;;
25127;SDS011;13107;51.304;6.866;2023-05-18T02:05:10;9.85;;;3.67;;
25127;SDS011;13107;51.304;6.866;2023-05-18T02:09:15;15.15;;;3.83;;
25127;SDS011;13107;51.304;6.866;2023-05-18T02:13:17;10.95;;;3.62;;
25127;SDS011;13107;51.304;6.866;2023-05-18T02:17:19;14.32;;;4.10;;
25127;SDS011;13107;51.304;6.866;2023-05-18T02:21:22;13.20;;;3.90;;
25127;SDS011;13107;51.304;6.866;2023-05-18T02:25:23;10.88;;;3.20;;
25127;SDS011;13107;51.304;6.866;2023-05-18T02:29:26;13.02;;;3.75;;
25127;SDS011;13107;51.304;6.866;2023-05-18T02:33:28;10.55;;;4.00;;
25127;SDS011;13107;51.304;6.866;2023-05-18T02:37:39;10.60;;;4.55;;
25127;SDS011;13107;51.304;6.866;2023-05-18T02:41:44;10.98;;;3.92;;
25127;SDS011;13107;51.304;6.866;2023-05-18T02:45:45;7.05;;;3.22;;
25127;SDS011;13107;51.304;6.866;2023-05-18T02:49:47;15.10;;;3.58;;
25127;SDS011;13107;51.304;6.866;2023-05-18T02:53:49;11.68;;;4.30;;
25127;SDS011;13107;51.304;6.866;2023-05-18T02:57:51;10.65;;;3.42;;
25127;SDS011;13107;51.304;6.866;2023-05-18T03:01:57;9.45;;;4.50;;
25127;SDS011;13107;51.304;6.866;2023-05-18T03:05:59;11.40;;;3.87;;
25127;SDS011;13107;51.304;6.866;2023-05-18T03:10:02;10.48;;;3.97;;
25127;SDS011;13107;51.304;6.866;2023-05-18T03:14:04;5.93;;;2.80;;
25127;SDS011;13107;51.304;6.866;2023-05-18T03:18:06;12.90;;;4.43;;
25127;SDS011;13107;51.304;6.866;2023-05-18T03:22:08;13.62;;;4.80;;
25127;SDS011;13107;51.304;6.866;2023-05-18T03:26:10;11.23;;;4.03;;
25127;SDS011;13107;51.304;6.866;2023-05-18T03:30:12;13.70;;;4.68;;
25127;SDS011;13107;51.304;6.866;2023-05-18T03:34:14;14.50;;;4.50;;
25127;SDS011;13107;51.304;6.866;2023-05-18T03:38:16;11.35;;;4.32;;
25127;SDS011;13107;51.304;6.866;2023-05-18T03:42:17;9.88;;;4.70;;
25127;SDS011;13107;51.304;6.866;2023-05-18T03:46:19;13.70;;;4.57;;
25127;SDS011;13107;51.304;6.866;2023-05-18T03:50:21;12.20;;;4.80;;
25127;SDS011;13107;51.304;6.866;2023-05-18T03:54:23;9.93;;;4.60;;
25127;SDS011;13107;51.304;6.866;2023-05-18T03:58:24;12.20;;;5.12;;
25127;SDS011;13107;51.304;6.866;2023-05-18T04:02:27;11.02;;;4.70;;
25127;SDS011;13107;51.304;6.866;2023-05-18T04:06:29;13.82;;;4.35;;
25127;SDS011;13107;51.304;6.866;2023-05-18T04:10:31;14.13;;;4.93;;
25127;SDS011;13107;51.304;6.866;2023-05-18T04:14:32;11.40;;;5.28;;
25127;SDS011;13107;51.304;6.866;2023-05-18T04:18:35;13.00;;;5.00;;
25127;SDS011;13107;51.304;6.866;2023-05-18T04:22:41;11.70;;;4.97;;
25127;SDS011;13107;51.304;6.866;2023-05-18T04:26:43;15.00;;;4.57;;
25127;SDS011;13107;51.304;6.866;2023-05-18T04:30:46;15.95;;;5.75;;
25127;SDS011;13107;51.304;6.866;2023-05-18T04:34:48;12.27;;;5.40;;
25127;SDS011;13107;51.304;6.866;2023-05-18T04:38:51;12.77;;;5.40;;
25127;SDS011;13107;51.304;6.866;2023-05-18T04:42:52;13.45;;;4.85;;
25127;SDS011;13107;51.304;6.866;2023-05-18T04:46:54;9.90;;;4.90;;
25127;SDS011;13107;51.304;6.866;2023-05-18T04:50:56;13.65;;;4.80;;
25127;SDS011;13107;51.304;6.866;2023-05-18T04:54:58;11.73;;;5.47;;
25127;SDS011;13107;51.304;6.866;2023-05-18T04:59:00;12.57;;;5.20;;
25127;SDS011;13107;51.304;6.866;2023-05-18T05:03:02;11.75;;;4.68;;
25127;SDS011;13107;51.304;6.866;2023-05-18T05:07:04;12.88;;;4.55;;
25127;SDS011;13107;51.304;6.866;2023-05-18T05:11:06;9.80;;;4.45;;
25127;SDS011;13107;51.304;6.866;2023-05-18T05:15:08;9.63;;;4.15;;
25127;SDS011;13107;51.304;6.866;2023-05-18T05:19:10;13.18;;;5.35;;
25127;SDS011;13107;51.304;6.866;2023-05-18T05:23:12;9.63;;;4.70;;
25127;SDS011;13107;51.304;6.866;2023-05-18T05:27:14;10.02;;;4.68;;
25127;SDS011;13107;51.304;6.866;2023-05-18T05:31:16;10.80;;;5.18;;
25127;SDS011;13107;51.304;6.866;2023-05-18T05:35:18;14.70;;;5.70;;
25127;SDS011;13107;51.304;6.866;2023-05-18T05:39:19;11.05;;;4.82;;
25127;SDS011;13107;51.304;6.866;2023-05-18T05:43:21;12.75;;;5.00;;
25127;SDS011;13107;51.304;6.866;2023-05-18T05:47:23;11.52;;;4.80;;
25127;SDS011;13107;51.304;6.866;2023-05-18T05:51:25;15.30;;;4.65;;
25127;SDS011;13107;51.304;6.866;2023-05-18T05:55:27;10.80;;;5.03;;
25127;SDS011;13107;51.304;6.866;2023-05-18T05:59:29;13.32;;;5.18;;
25127;SDS011;13107;51.304;6.866;2023-05-18T06:03:31;13.57;;;4.87;;
25127;SDS011;13107;51.304;6.866;2023-05-18T06:07:36;10.15;;;4.97;;
25127;SDS011;13107;51.304;6.866;2023-05-18T06:11:38;13.75;;;4.62;;
25127;SDS011;13107;51.304;6.866;2023-05-18T06:15:40;9.60;;;4.45;;
25127;SDS011;13107;51.304;6.866;2023-05-18T06:19:42;10.18;;;3.83;;
25127;SDS011;13107;51.304;6.866;2023-05-18T06:23:43;12.45;;;4.18;;
25127;SDS011;13107;51.304;6.866;2023-05-18T06:27:45;11.15;;;4.35;;
25127;SDS011;13107;51.304;6.866;2023-05-18T06:31:47;12.25;;;4.05;;
25127;SDS011;13107;51.304;6.866;2023-05-18T06:35:49;11.90;;;3.83;;
25127;SDS011;13107;51.304;6.866;2023-05-18T06:39:51;11.70;;;4.10;;
25127;SDS011;13107;51.304;6.866;2023-05-18T06:43:53;10.65;;;3.62;;
25127;SDS011;13107;51.304;6.866;2023-05-18T06:47:55;12.60;;;4.15;;
25127;SDS011;13107;51.304;6.866;2023-05-18T06:51:56;6.50;;;3.17;;
25127;SDS011;13107;51.304;6.866;2023-05-18T06:55:58;11.77;;;3.80;;
25127;SDS011;13107;51.304;6.866;2023-05-18T07:00:00;9.65;;;3.30;;
25127;SDS011;13107;51.304;6.866;2023-05-18T07:04:02;12.60;;;3.20;;
25127;SDS011;13107;51.304;6.866;2023-05-18T07:08:04;10.70;;;3.97;;
25127;SDS011;13107;51.304;6.866;2023-05-18T07:12:07;13.20;;;4.22;;
25127;SDS011;13107;51.304;6.866;2023-05-18T07:16:09;9.43;;;3.60;;
25127;SDS011;13107;51.304;6.866;2023-05-18T07:20:11;14.38;;;4.45;;
25127;SDS011;13107;51.304;6.866;2023-05-18T07:24:13;7.95;;;3.60;;
25127;SDS011;13107;51.304;6.866;2023-05-18T07:28:15;10.75;;;3.15;;
25127;SDS011;13107;51.304;6.866;2023-05-18T07:32:17;10.82;;;3.67;;
25127;SDS011;13107;51.304;6.866;2023-05-18T07:36:19;15.13;;;4.75;;
25127;SDS011;13107;51.304;6.866;2023-05-18T07:40:22;13.27;;;3.70;;
25127;SDS011;13107;51.304;6.866;2023-05-18T07:44:23;11.23;;;3.37;;
25127;SDS011;13107;51.304;6.866;2023-05-18T07:48:25;14.43;;;3.72;;
25127;SDS011;13107;51.304;6.866;2023-05-18T07:52:27;11.45;;;3.33;;
25127;SDS011;13107;51.304;6.866;2023-05-18T07:56:29;9.52;;;3.28;;
25127;SDS011;13107;51.304;6.866;2023-05-18T08:00:32;13.73;;;3.08;;
25127;SDS011;13107;51.304;6.866;2023-05-18T08:04:34;11.98;;;2.97;;
25127;SDS011;13107;51.304;6.866;2023-05-18T08:08:36;10.52;;;3.20;;
25127;SDS011;13107;51.304;6.866;2023-05-18T08:12:38;8.48;;;2.97;;
25127;SDS011;13107;51.304;6.866;2023-05-18T08:16:39;11.63;;;2.53;;
25127;SDS011;13107;51.304;6.866;2023-05-18T08:20:41;11.10;;;2.80;;
25127;SDS011;13107;51.304;6.866;2023-05-18T08:24:44;8.63;;;2.78;;
25127;SDS011;13107;51.304;6.866;2023-05-18T08:28:45;11.18;;;4.03;;
25127;SDS011;13107;51.304;6.866;2023-05-18T08:32:48;11.02;;;3.00;;
25127;SDS011;13107;51.304;6.866;2023-05-18T08:36:50;8.60;;;2.67;;
25127;SDS011;13107;51.304;6.866;2023-05-18T08:41:37;8.85;;;2.67;;
25127;SDS011;13107;51.304;6.866;2023-05-18T08:50:04;12.27;;;2.97;;
25127;SDS011;13107;51.304;6.866;2023-05-18T08:54:06;7.40;;;2.72;;
25127;SDS011;13107;51.304;6.866;2023-05-18T08:58:12;10.32;;;3.00;;
25127;SDS011;13107;51.304;6.866;2023-05-18T09:02:16;13.48;;;5.68;;
25127;SDS011;13107;51.304;6.866;2023-05-18T09:06:19;9.38;;;2.85;;
25127;SDS011;13107;51.304;6.866;2023-05-18T09:10:24;7.50;;;2.65;;
25127;SDS011;13107;51.304;6.866;2023-05-18T09:14:26;15.18;;;8.70;;
25127;SDS011;13107;51.304;6.866;2023-05-18T09:18:29;13.57;;;3.28;;
25127;SDS011;13107;51.304;6.866;2023-05-18T09:22:31;14.05;;;6.25;;
25127;SDS011;13107;51.304;6.866;2023-05-18T09:26:33;11.85;;;2.55;;
25127;SDS011;13107;51.304;6.866;2023-05-18T09:30:39;8.32;;;2.53;;
25127;SDS011;13107;51.304;6.866;2023-05-18T09:34:44;9.27;;;2.75;;
25127;SDS011;13107;51.304;6.866;2023-05-18T09:38:46;8.32;;;2.72;;
25127;SDS011;13107;51.304;6.866;2023-05-18T09:42:47;9.23;;;2.37;;
25127;SDS011;13107;51.304;6.866;2023-05-18T09:46:53;9.63;;;3.00;;
25127;SDS011;13107;51.304;6.866;2023-05-18T09:50:58;9.82;;;2.50;;
25127;SDS011;13107;51.304;6.866;2023-05-18T09:55:00;8.05;;;2.72;;
25127;SDS011;13107;51.304;6.866;2023-05-18T09:59:12;9.93;;;2.62;;
25127;SDS011;13107;51.304;6.866;2023-05-18T10:03:15;7.85;;;2.60;;
25127;SDS011;13107;51.304;6.866;2023-05-18T10:07:18;6.65;;;2.50;;
25127;SDS011;13107;51.304;6.866;2023-05-18T10:11:19;11.18;;;2.80;;
25127;SDS011;13107;51.304;6.866;2023-05-18T10:15:22;9.38;;;2.72;;
25127;SDS011;13107;51.304;6.866;2023-05-18T10:19:24;7.70;;;2.60;;
25127;SDS011;13107;51.304;6.866;2023-05-18T10:23:29;11.27;;;2.70;;
25127;SDS011;13107;51.304;6.866;2023-05-18T10:27:33;5.28;;;2.22;;
25127;SDS011;13107;51.304;6.866;2023-05-18T10:31:36;9.45;;;3.05;;
25127;SDS011;13107;51.304;6.866;2023-05-18T10:35:38;9.35;;;2.80;;
25127;SDS011;13107;51.304;6.866;2023-05-18T10:39:41;7.65;;;2.50;;
25127;SDS011;13107;51.304;6.866;2023-05-18T10:43:45;6.00;;;2.35;;
25127;SDS011;13107;51.304;6.866;2023-05-18T10:47:49;10.05;;;2.67;;
25127;SDS011;13107;51.304;6.866;2023-05-18T10:51:54;11.40;;;2.62;;
25127;SDS011;13107;51.304;6.866;2023-05-18T10:56:00;7.43;;;3.03;;
25127;SDS011;13107;51.304;6.866;2023-05-18T11:00:02;5.43;;;2.37;;
25127;SDS011;13107;51.304;6.866;2023-05-18T11:04:07;7.00;;;2.60;;
25127;SDS011;13107;51.304;6.866;2023-05-18T11:08:09;11.75;;;3.25;;
25127;SDS011;13107;51.304;6.866;2023-05-18T11:12:12;9.77;;;2.75;;
25127;SDS011;13107;51.304;6.866;2023-05-18T11:16:14;9.93;;;2.65;;
25127;SDS011;13107;51.304;6.866;2023-05-18T11:20:17;7.50;;;2.15;;
25127;SDS011;13107;51.304;6.866;2023-05-18T11:28:23;8.68;;;2.65;;
25127;SDS011;13107;51.304;6.866;2023-05-18T11:32:28;12.57;;;3.15;;
25127;SDS011;13107;51.304;6.866;2023-05-18T11:36:33;26.70;;;13.55;;
25127;SDS011;13107;51.304;6.866;2023-05-18T11:40:46;7.68;;;2.55;;
25127;SDS011;13107;51.304;6.866;2023-05-18T11:44:52;8.73;;;2.50;;
25127;SDS011;13107;51.304;6.866;2023-05-18T11:49:00;10.30;;;2.25;;
25127;SDS011;13107;51.304;6.866;2023-05-18T11:53:09;10.05;;;2.62;;
25127;SDS011;13107;51.304;6.866;2023-05-18T12:01:19;10.13;;;2.75;;
25127;SDS011;13107;51.304;6.866;2023-05-18T12:05:23;6.07;;;2.15;;
25127;SDS011;13107;51.304;6.866;2023-05-18T12:09:30;8.25;;;2.45;;
25127;SDS011;13107;51.304;6.866;2023-05-18T12:13:32;9.02;;;2.70;;
25127;SDS011;13107;51.304;6.866;2023-05-18T12:17:41;8.80;;;2.75;;
25127;SDS011;13107;51.304;6.866;2023-05-18T12:21:47;11.05;;;2.72;;
25127;SDS011;13107;51.304;6.866;2023-05-18T12:25:49;6.97;;;2.10;;
25127;SDS011;13107;51.304;6.866;2023-05-18T12:29:52;8.32;;;2.70;;
25127;SDS011;13107;51.304;6.866;2023-05-18T12:33:55;7.37;;;2.33;;
25127;SDS011;13107;51.304;6.866;2023-05-18T12:37:59;10.77;;;2.72;;
25127;SDS011;13107;51.304;6.866;2023-05-18T12:42:09;9.85;;;2.37;;
25127;SDS011;13107;51.304;6.866;2023-05-18T12:46:11;6.07;;;1.70;;
25127;SDS011;13107;51.304;6.866;2023-05-18T12:50:13;9.75;;;2.70;;
25127;SDS011;13107;51.304;6.866;2023-05-18T12:54:15;11.27;;;2.37;;
25127;SDS011;13107;51.304;6.866;2023-05-18T12:58:27;5.37;;;2.03;;
25127;SDS011;13107;51.304;6.866;2023-05-18T13:02:33;9.05;;;2.60;;
25127;SDS011;13107;51.304;6.866;2023-05-18T13:06:37;9.15;;;3.20;;
25127;SDS011;13107;51.304;6.866;2023-05-18T13:10:39;7.40;;;2.47;;
25127;SDS011;13107;51.304;6.866;2023-05-18T13:14:44;9.88;;;2.40;;
25127;SDS011;13107;51.304;6.866;2023-05-18T13:18:53;9.77;;;3.33;;
25127;SDS011;13107;51.304;6.866;2023-05-18T13:22:57;11.10;;;2.78;;
25127;SDS011;13107;51.304;6.866;2023-05-18T13:27:02;10.30;;;2.55;;
25127;SDS011;13107;51.304;6.866;2023-05-18T13:31:03;9.15;;;2.35;;
25127;SDS011;13107;51.304;6.866;2023-05-18T13:35:05;9.25;;;2.67;;
25127;SDS011;13107;51.304;6.866;2023-05-18T13:39:07;8.93;;;2.70;;
25127;SDS011;13107;51.304;6.866;2023-05-18T13:43:09;9.02;;;2.60;;
25127;SDS011;13107;51.304;6.866;2023-05-18T13:47:14;8.57;;;3.08;;
25127;SDS011;13107;51.304;6.866;2023-05-18T13:51:16;7.57;;;2.70;;
25127;SDS011;13107;51.304;6.866;2023-05-18T13:55:18;5.70;;;2.45;;
25127;SDS011;13107;51.304;6.866;2023-05-18T13:59:20;5.90;;;2.33;;
25127;SDS011;13107;51.304;6.866;2023-05-18T14:03:22;9.25;;;2.87;;
25127;SDS011;13107;51.304;6.866;2023-05-18T14:07:24;9.73;;;2.97;;
25127;SDS011;13107;51.304;6.866;2023-05-18T14:11:27;9.10;;;2.47;;
25127;SDS011;13107;51.304;6.866;2023-05-18T14:15:29;9.57;;;2.35;;
25127;SDS011;13107;51.304;6.866;2023-05-18T14:19:30;9.40;;;2.55;;
25127;SDS011;13107;51.304;6.866;2023-05-18T14:23:32;8.10;;;2.40;;
25127;SDS011;13107;51.304;6.866;2023-05-18T14:27:34;6.55;;;2.10;;
25127;SDS011;13107;51.304;6.866;2023-05-18T14:31:36;9.73;;;2.28;;
25127;SDS011;13107;51.304;6.866;2023-05-18T14:35:38;7.82;;;2.10;;
25127;SDS011;13107;51.304;6.866;2023-05-18T14:39:40;7.00;;;2.10;;
25127;SDS011;13107;51.304;6.866;2023-05-18T14:43:42;8.52;;;2.72;;
25127;SDS011;13107;51.304;6.866;2023-05-18T14:47:45;7.57;;;2.45;;
25127;SDS011;13107;51.304;6.866;2023-05-18T14:51:48;6.03;;;1.83;;
25127;SDS011;13107;51.304;6.866;2023-05-18T14:55:53;10.80;;;2.70;;
25127;SDS011;13107;51.304;6.866;2023-05-18T14:59:58;11.00;;;2.05;;
25127;SDS011;13107;51.304;6.866;2023-05-18T15:04:00;6.82;;;2.33;;
25127;SDS011;13107;51.304;6.866;2023-05-18T15:08:02;7.10;;;2.30;;
25127;SDS011;13107;51.304;6.866;2023-05-18T15:12:04;6.20;;;2.03;;
25127;SDS011;13107;51.304;6.866;2023-05-18T15:16:06;9.10;;;1.87;;
25127;SDS011;13107;51.304;6.866;2023-05-18T15:20:08;9.13;;;2.00;;
25127;SDS011;13107;51.304;6.866;2023-05-18T15:24:11;7.93;;;2.00;;
25127;SDS011;13107;51.304;6.866;2023-05-18T15:28:13;7.20;;;1.95;;
25127;SDS011;13107;51.304;6.866;2023-05-18T15:32:14;11.32;;;2.42;;
25127;SDS011;13107;51.304;6.866;2023-05-18T15:36:16;9.80;;;2.30;;
25127;SDS011;13107;51.304;6.866;2023-05-18T15:40:18;11.60;;;2.50;;
25127;SDS011;13107;51.304;6.866;2023-05-18T15:44:20;8.82;;;2.33;;
25127;SDS011;13107;51.304;6.866;2023-05-18T15:48:22;10.82;;;2.45;;
25127;SDS011;13107;51.304;6.866;2023-05-18T15:52:24;10.90;;;2.28;;
25127;SDS011;13107;51.304;6.866;2023-05-18T15:56:26;7.62;;;2.72;;
25127;SDS011;13107;51.304;6.866;2023-05-18T16:00:28;8.80;;;2.53;;
25127;SDS011;13107;51.304;6.866;2023-05-18T16:04:30;7.90;;;2.50;;
25127;SDS011;13107;51.304;6.866;2023-05-18T16:08:32;7.85;;;2.22;;
25127;SDS011;13107;51.304;6.866;2023-05-18T16:12:34;6.95;;;1.87;;
25127;SDS011;13107;51.304;6.866;2023-05-18T16:16:36;9.93;;;1.90;;
25127;SDS011;13107;51.304;6.866;2023-05-18T16:20:37;8.77;;;2.42;;
25127;SDS011;13107;51.304;6.866;2023-05-18T16:24:39;9.27;;;2.22;;
25127;SDS011;13107;51.304;6.866;2023-05-18T16:28:41;7.90;;;1.85;;
25127;SDS011;13107;51.304;6.866;2023-05-18T16:32:43;9.02;;;2.62;;
25127;SDS011;13107;51.304;6.866;2023-05-18T16:36:45;8.88;;;2.40;;
25127;SDS011;13107;51.304;6.866;2023-05-18T16:40:47;8.50;;;2.35;;
25127;SDS011;13107;51.304;6.866;2023-05-18T16:44:48;9.85;;;2.20;;
25127;SDS011;13107;51.304;6.866;2023-05-18T16:48:50;7.07;;;1.98;;
25127;SDS011;13107;51.304;6.866;2023-05-18T16:52:52;9.68;;;2.12;;
25127;SDS011;13107;51.304;6.866;2023-05-18T16:56:54;8.35;;;2.30;;
25127;SDS011;13107;51.304;6.866;2023-05-18T17:00:56;10.18;;;2.33;;
25127;SDS011;13107;51.304;6.866;2023-05-18T17:04:58;8.57;;;2.25;;
25127;SDS011;13107;51.304;6.866;2023-05-18T17:09:00;10.18;;;2.45;;
25127;SDS011;13107;51.304;6.866;2023-05-18T17:13:04;8.35;;;2.20;;
25127;SDS011;13107;51.304;6.866;2023-05-18T17:17:06;10.80;;;2.35;;
25127;SDS011;13107;51.304;6.866;2023-05-18T17:21:08;5.95;;;1.85;;
25127;SDS011;13107;51.304;6.866;2023-05-18T17:25:10;6.07;;;1.95;;
25127;SDS011;13107;51.304;6.866;2023-05-18T17:29:12;8.80;;;2.37;;
25127;SDS011;13107;51.304;6.866;2023-05-18T17:33:18;6.80;;;1.60;;
25127;SDS011;13107;51.304;6.866;2023-05-18T17:37:20;8.50;;;1.90;;
25127;SDS011;13107;51.304;6.866;2023-05-18T17:41:22;12.90;;;2.30;;
25127;SDS011;13107;51.304;6.866;2023-05-18T17:45:25;11.55;;;1.90;;
25127;SDS011;13107;51.304;6.866;2023-05-18T17:49:27;10.57;;;1.98;;
25127;SDS011;13107;51.304;6.866;2023-05-18T17:53:29;10.88;;;1.95;;
25127;SDS011;13107;51.304;6.866;2023-05-18T17:57:31;9.02;;;2.20;;
25127;SDS011;13107;51.304;6.866;2023-05-18T18:01:34;8.02;;;2.10;;
25127;SDS011;13107;51.304;6.866;2023-05-18T18:05:36;8.50;;;2.53;;
25127;SDS011;13107;51.304;6.866;2023-05-18T18:09:38;8.00;;;1.95;;
25127;SDS011;13107;51.304;6.866;2023-05-18T18:13:39;5.82;;;2.03;;
25127;SDS011;13107;51.304;6.866;2023-05-18T18:17:41;8.77;;;2.30;;
25127;SDS011;13107;51.304;6.866;2023-05-18T18:21:43;7.57;;;1.90;;
25127;SDS011;13107;51.304;6.866;2023-05-18T18:25:45;6.25;;;1.90;;
25127;SDS011;13107;51.304;6.866;2023-05-18T18:29:47;8.73;;;1.80;;
25127;SDS011;13107;51.304;6.866;2023-05-18T18:33:49;12.98;;;2.40;;
25127;SDS011;13107;51.304;6.866;2023-05-18T18:37:51;9.98;;;2.50;;
25127;SDS011;13107;51.304;6.866;2023-05-18T18:41:53;7.12;;;1.77;;
25127;SDS011;13107;51.304;6.866;2023-05-18T18:45:55;7.15;;;2.10;;
25127;SDS011;13107;51.304;6.866;2023-05-18T18:49:57;6.15;;;2.10;;
25127;SDS011;13107;51.304;6.866;2023-05-18T18:53:59;6.62;;;2.20;;
25127;SDS011;13107;51.304;6.866;2023-05-18T18:58:01;9.02;;;2.10;;
25127;SDS011;13107;51.304;6.866;2023-05-18T19:02:03;6.25;;;1.90;;
25127;SDS011;13107;51.304;6.866;2023-05-18T19:06:05;7.47;;;1.75;;
25127;SDS011;13107;51.304;6.866;2023-05-18T19:10:07;7.75;;;2.00;;
25127;SDS011;13107;51.304;6.866;2023-05-18T19:14:10;6.65;;;2.00;;
25127;SDS011;13107;51.304;6.866;2023-05-18T19:18:12;8.40;;;1.95;;
25127;SDS011;13107;51.304;6.866;2023-05-18T19:22:14;5.78;;;1.70;;
25127;SDS011;13107;51.304;6.866;2023-05-18T19:26:16;6.97;;;2.20;;
25127;SDS011;13107;51.304;6.866;2023-05-18T19:30:18;6.97;;;1.90;;
25127;SDS011;13107;51.304;6.866;2023-05-18T19:34:21;6.45;;;2.15;;
25127;SDS011;13107;51.304;6.866;2023-05-18T19:38:24;10.52;;;2.17;;
25127;SDS011;13107;51.304;6.866;2023-05-18T19:42:25;10.60;;;2.17;;
25127;SDS011;13107;51.304;6.866;2023-05-18T19:46:27;8.10;;;2.05;;
25127;SDS011;13107;51.304;6.866;2023-05-18T19:50:29;9.48;;;2.22;;
25127;SDS011;13107;51.304;6.866;2023-05-18T19:54:31;9.30;;;2.05;;
25127;SDS011;13107;51.304;6.866;2023-05-18T19:58:34;8.15;;;2.28;;
25127;SDS011;13107;51.304;6.866;2023-05-18T20:02:36;5.95;;;2.20;;
25127;SDS011;13107;51.304;6.866;2023-05-18T20:06:38;8.23;;;2.10;;
25127;SDS011;13107;51.304;6.866;2023-05-18T20:10:40;8.35;;;2.87;;
25127;SDS011;13107;51.304;6.866;2023-05-18T20:14:41;11.32;;;2.25;;
25127;SDS011;13107;51.304;6.866;2023-05-18T20:18:43;9.98;;;2.37;;
25127;SDS011;13107;51.304;6.866;2023-05-18T20:22:46;12.23;;;2.42;;
25127;SDS011;13107;51.304;6.866;2023-05-18T20:26:47;7.87;;;2.33;;
25127;SDS011;13107;51.304;6.866;2023-05-18T20:30:50;7.60;;;2.22;;
25127;SDS011;13107;51.304;6.866;2023-05-18T20:34:52;7.37;;;2.20;;
25127;SDS011;13107;51.304;6.866;2023-05-18T20:38:54;8.98;;;2.20;;
25127;SDS011;13107;51.304;6.866;2023-05-18T20:42:56;7.57;;;2.28;;
25127;SDS011;13107;51.304;6.866;2023-05-18T20:46:59;8.98;;;2.20;;
25127;SDS011;13107;51.304;6.866;2023-05-18T20:51:01;8.60;;;2.47;;
25127;SDS011;13107;51.304;6.866;2023-05-18T20:55:03;15.32;;;2.40;;
25127;SDS011;13107;51.304;6.866;2023-05-18T20:59:05;7.85;;;2.10;;
25127;SDS011;13107;51.304;6.866;2023-05-18T21:03:06;13.95;;;3.05;;
25127;SDS011;13107;51.304;6.866;2023-05-18T21:07:08;8.95;;;2.20;;
25127;SDS011;13107;51.304;6.866;2023-05-18T21:11:10;11.20;;;2.22;;
25127;SDS011;13107;51.304;6.866;2023-05-18T21:15:12;7.03;;;2.53;;
25127;SDS011;13107;51.304;6.866;2023-05-18T21:19:14;9.88;;;2.65;;
25127;SDS011;13107;51.304;6.866;2023-05-18T21:23:16;8.30;;;2.45;;
25127;SDS011;13107;51.304;6.866;2023-05-18T21:27:18;6.43;;;2.15;;
25127;SDS011;13107;51.304;6.866;2023-05-18T21:31:20;6.10;;;1.92;;
25127;SDS011;13107;51.304;6.866;2023-05-18T21:35:22;12.63;;;2.12;;
25127;SDS011;13107;51.304;6.866;2023-05-18T21:39:24;6.10;;;1.98;;
25127;SDS011;13107;51.304;6.866;2023-05-18T21:43:26;7.32;;;2.35;;
25127;SDS011;13107;51.304;6.866;2023-05-18T21:47:27;6.40;;;2.30;;
25127;SDS011;13107;51.304;6.866;2023-05-18T21:51:29;9.55;;;2.12;;
25127;SDS011;13107;51.304;6.866;2023-05-18T21:55:31;7.68;;;2.40;;
25127;SDS011;13107;51.304;6.866;2023-05-18T21:59:33;9.02;;;2.47;;
25127;SDS011;13107;51.304;6.866;2023-05-18T22:03:35;10.40;;;2.60;;
25127;SDS011;13107;51.304;6.866;2023-05-18T22:07:38;8.45;;;2.65;;
25127;SDS011;13107;51.304;6.866;2023-05-18T22:11:39;7.37;;;2.28;;
25127;SDS011;13107;51.304;6.866;2023-05-18T22:15:41;6.15;;;2.00;;
25127;SDS011;13107;51.304;6.866;2023-05-18T22:19:43;7.75;;;2.33;;
25127;SDS011;13107;51.304;6.866;2023-05-18T22:23:45;9.82;;;2.50;;
25127;SDS011;13107;51.304;6.866;2023-05-18T22:27:47;7.53;;;2.47;;
25127;SDS011;13107;51.304;6.866;2023-05-18T22:31:49;7.72;;;2.28;;
25127;SDS011;13107;51.304;6.866;2023-05-18T22:35:51;7.60;;;2.45;;
25127;SDS011;13107;51.304;6.866;2023-05-18T22:39:53;8.80;;;2.83;;
25127;SDS011;13107;51.304;6.866;2023-05-18T22:43:55;8.60;;;2.53;;
25127;SDS011;13107;51.304;6.866;2023-05-18T22:47:57;7.03;;;2.60;;
25127;SDS011;13107;51.304;6.866;2023-05-18T22:52:02;7.57;;;2.87;;
25127;SDS011;13107;51.304;6.866;2023-05-18T22:56:05;6.20;;;2.47;;
25127;SDS011;13107;51.304;6.866;2023-05-18T23:00:08;9.60;;;2.75;;
25127;SDS011;13107;51.304;6.866;2023-05-18T23:04:11;12.73;;;2.85;;
25127;SDS011;13107;51.304;6.866;2023-05-18T23:08:14;11.07;;;2.95;;
25127;SDS011;13107;51.304;6.866;2023-05-18T23:12:16;9.80;;;2.95;;
25127;SDS011;13107;51.304;6.866;2023-05-18T23:16:18;11.48;;;2.67;;
25127;SDS011;13107;51.304;6.866;2023-05-18T23:20:21;10.48;;;3.00;;
25127;SDS011;13107;51.304;6.866;2023-05-18T23:24:23;6.43;;;2.80;;
25127;SDS011;13107;51.304;6.866;2023-05-18T23:28:24;7.43;;;2.67;;
25127;SDS011;13107;51.304;6.866;2023-05-18T23:32:27;7.53;;;3.05;;
25127;SDS011;13107;51.304;6.866;2023-05-18T23:36:29;8.15;;;2.78;;
25127;SDS011;13107;51.304;6.866;2023-05-18T23:40:35;7.93;;;2.92;;
25127;SDS011;13107;51.304;6.866;2023-05-18T23:44:37;7.78;;;3.10;;
25127;SDS011;13107;51.304;6.866;2023-05-18T23:48:39;7.18;;;3.35;;
25127;SDS011;13107;51.304;6.866;2023-05-18T23:52:41;7.32;;;2.75;;
25127;SDS011;13107;51.304;6.866;2023-05-18T23:56:48;9.95;;;3.05;;
